sensor_id;sensor_type;location;lat;lon;timestamp;P1;durP1;ratioP1;P2;durP2;ratioP2
31210;SDS011;17836;50.948;3.946;2023-05-28T00:02:20;20.55;;;10.82;;
31210;SDS011;17836;50.948;3.946;2023-05-28T00:04:45;16.97;;;9.40;;
31210;SDS011;17836;50.948;3.946;2023-05-28T00:07:11;18.43;;;10.00;;
31210;SDS011;17836;50.948;3.946;2023-05-28T00:09:36;23.90;;;10.60;;
31210;SDS011;17836;50.948;3.946;2023-05-28T00:12:02;17.25;;;10.27;;
31210;SDS011;17836;50.948;3.946;2023-05-28T00:14:27;15.93;;;9.85;;
31210;SDS011;17836;50.948;3.946;2023-05-28T00:16:52;22.60;;;10.83;;
31210;SDS011;17836;50.948;3.946;2023-05-28T00:19:17;14.00;;;9.93;;
31210;SDS011;17836;50.948;3.946;2023-05-28T00:21:45;18.23;;;9.77;;
31210;SDS011;17836;50.948;3.946;2023-05-28T00:24:13;21.95;;;11.23;;
31210;SDS011;17836;50.948;3.946;2023-05-28T00:26:38;20.35;;;10.32;;
31210;SDS011;17836;50.948;3.946;2023-05-28T00:29:04;19.00;;;10.57;;
31210;SDS011;17836;50.948;3.946;2023-05-28T00:31:29;17.13;;;10.75;;
31210;SDS011;17836;50.948;3.946;2023-05-28T00:33:56;16.40;;;9.63;;
31210;SDS011;17836;50.948;3.946;2023-05-28T00:36:22;19.83;;;10.00;;
31210;SDS011;17836;50.948;3.946;2023-05-28T00:38:47;21.05;;;10.48;;
31210;SDS011;17836;50.948;3.946;2023-05-28T00:41:13;17.63;;;11.05;;
31210;SDS011;17836;50.948;3.946;2023-05-28T00:43:38;21.00;;;10.55;;
31210;SDS011;17836;50.948;3.946;2023-05-28T00:46:05;20.40;;;10.68;;
31210;SDS011;17836;50.948;3.946;2023-05-28T00:48:31;19.00;;;12.25;;
31210;SDS011;17836;50.948;3.946;2023-05-28T00:50:59;20.13;;;11.53;;
31210;SDS011;17836;50.948;3.946;2023-05-28T00:53:25;28.15;;;11.75;;
31210;SDS011;17836;50.948;3.946;2023-05-28T00:55:53;28.65;;;12.15;;
31210;SDS011;17836;50.948;3.946;2023-05-28T00:58:18;21.85;;;12.38;;
31210;SDS011;17836;50.948;3.946;2023-05-28T01:00:44;29.95;;;12.63;;
31210;SDS011;17836;50.948;3.946;2023-05-28T01:03:10;26.02;;;12.75;;
31210;SDS011;17836;50.948;3.946;2023-05-28T01:05:38;21.98;;;12.52;;
31210;SDS011;17836;50.948;3.946;2023-05-28T01:08:03;25.27;;;12.27;;
31210;SDS011;17836;50.948;3.946;2023-05-28T01:10:29;24.73;;;12.23;;
31210;SDS011;17836;50.948;3.946;2023-05-28T01:12:56;25.20;;;13.00;;
31210;SDS011;17836;50.948;3.946;2023-05-28T01:15:24;29.40;;;12.20;;
31210;SDS011;17836;50.948;3.946;2023-05-28T01:17:50;22.52;;;12.05;;
31210;SDS011;17836;50.948;3.946;2023-05-28T01:20:17;28.95;;;12.68;;
31210;SDS011;17836;50.948;3.946;2023-05-28T01:22:45;22.25;;;12.57;;
31210;SDS011;17836;50.948;3.946;2023-05-28T01:25:11;20.50;;;12.48;;
31210;SDS011;17836;50.948;3.946;2023-05-28T01:27:40;28.27;;;13.13;;
31210;SDS011;17836;50.948;3.946;2023-05-28T01:30:06;28.90;;;13.63;;
31210;SDS011;17836;50.948;3.946;2023-05-28T01:32:35;28.85;;;13.43;;
31210;SDS011;17836;50.948;3.946;2023-05-28T01:35:00;26.40;;;13.70;;
31210;SDS011;17836;50.948;3.946;2023-05-28T01:37:26;23.33;;;13.33;;
31210;SDS011;17836;50.948;3.946;2023-05-28T01:39:52;31.58;;;14.40;;
31210;SDS011;17836;50.948;3.946;2023-05-28T01:42:17;29.90;;;15.65;;
31210;SDS011;17836;50.948;3.946;2023-05-28T01:44:43;25.90;;;14.18;;
31210;SDS011;17836;50.948;3.946;2023-05-28T01:47:11;21.35;;;13.20;;
31210;SDS011;17836;50.948;3.946;2023-05-28T01:49:37;27.13;;;13.77;;
31210;SDS011;17836;50.948;3.946;2023-05-28T01:52:04;30.58;;;14.23;;
31210;SDS011;17836;50.948;3.946;2023-05-28T01:54:29;28.02;;;14.07;;
31210;SDS011;17836;50.948;3.946;2023-05-28T01:56:57;28.40;;;14.20;;
31210;SDS011;17836;50.948;3.946;2023-05-28T01:59:22;25.08;;;12.82;;
31210;SDS011;17836;50.948;3.946;2023-05-28T02:01:47;19.60;;;12.27;;
31210;SDS011;17836;50.948;3.946;2023-05-28T02:04:15;25.80;;;12.50;;
31210;SDS011;17836;50.948;3.946;2023-05-28T02:06:44;22.07;;;14.07;;
31210;SDS011;17836;50.948;3.946;2023-05-28T02:09:13;24.52;;;13.38;;
31210;SDS011;17836;50.948;3.946;2023-05-28T02:11:38;23.13;;;13.03;;
31210;SDS011;17836;50.948;3.946;2023-05-28T02:14:04;20.10;;;12.77;;
31210;SDS011;17836;50.948;3.946;2023-05-28T02:16:30;29.58;;;13.20;;
31210;SDS011;17836;50.948;3.946;2023-05-28T02:18:55;21.73;;;12.23;;
31210;SDS011;17836;50.948;3.946;2023-05-28T02:21:20;21.90;;;12.00;;
31210;SDS011;17836;50.948;3.946;2023-05-28T02:23:46;23.30;;;12.50;;
31210;SDS011;17836;50.948;3.946;2023-05-28T02:26:14;18.10;;;12.60;;
31210;SDS011;17836;50.948;3.946;2023-05-28T02:28:40;24.52;;;12.30;;
31210;SDS011;17836;50.948;3.946;2023-05-28T02:31:08;24.25;;;13.10;;
31210;SDS011;17836;50.948;3.946;2023-05-28T02:33:33;19.55;;;13.13;;
31210;SDS011;17836;50.948;3.946;2023-05-28T02:35:58;21.20;;;11.93;;
31210;SDS011;17836;50.948;3.946;2023-05-28T02:38:26;18.27;;;10.77;;
31210;SDS011;17836;50.948;3.946;2023-05-28T02:40:51;31.13;;;14.13;;
31210;SDS011;17836;50.948;3.946;2023-05-28T02:43:16;24.08;;;13.25;;
31210;SDS011;17836;50.948;3.946;2023-05-28T02:45:42;23.20;;;13.77;;
31210;SDS011;17836;50.948;3.946;2023-05-28T02:48:07;25.42;;;12.27;;
31210;SDS011;17836;50.948;3.946;2023-05-28T02:50:34;22.77;;;12.43;;
31210;SDS011;17836;50.948;3.946;2023-05-28T02:53:00;23.60;;;13.82;;
31210;SDS011;17836;50.948;3.946;2023-05-28T02:55:25;23.27;;;12.67;;
31210;SDS011;17836;50.948;3.946;2023-05-28T02:57:50;25.00;;;12.87;;
31210;SDS011;17836;50.948;3.946;2023-05-28T03:00:17;22.73;;;12.55;;
31210;SDS011;17836;50.948;3.946;2023-05-28T03:02:43;18.73;;;11.35;;
31210;SDS011;17836;50.948;3.946;2023-05-28T03:05:08;16.47;;;10.83;;
31210;SDS011;17836;50.948;3.946;2023-05-28T03:07:33;20.43;;;12.63;;
31210;SDS011;17836;50.948;3.946;2023-05-28T03:09:58;17.20;;;11.37;;
31210;SDS011;17836;50.948;3.946;2023-05-28T03:12:24;19.00;;;13.13;;
31210;SDS011;17836;50.948;3.946;2023-05-28T03:14:49;20.63;;;13.10;;
31210;SDS011;17836;50.948;3.946;2023-05-28T03:17:15;23.05;;;12.15;;
31210;SDS011;17836;50.948;3.946;2023-05-28T03:19:40;16.53;;;11.63;;
31210;SDS011;17836;50.948;3.946;2023-05-28T03:22:05;20.35;;;11.95;;
31210;SDS011;17836;50.948;3.946;2023-05-28T03:24:30;22.27;;;13.83;;
31210;SDS011;17836;50.948;3.946;2023-05-28T03:26:59;21.25;;;12.80;;
31210;SDS011;17836;50.948;3.946;2023-05-28T03:29:24;20.60;;;12.68;;
31210;SDS011;17836;50.948;3.946;2023-05-28T03:31:50;20.48;;;12.80;;
31210;SDS011;17836;50.948;3.946;2023-05-28T03:34:15;25.60;;;13.87;;
31210;SDS011;17836;50.948;3.946;2023-05-28T03:36:40;23.67;;;13.35;;
31210;SDS011;17836;50.948;3.946;2023-05-28T03:39:09;22.38;;;11.77;;
31210;SDS011;17836;50.948;3.946;2023-05-28T03:44:02;19.83;;;11.63;;
31210;SDS011;17836;50.948;3.946;2023-05-28T03:46:28;21.98;;;13.35;;
31210;SDS011;17836;50.948;3.946;2023-05-28T03:48:53;24.00;;;13.50;;
31210;SDS011;17836;50.948;3.946;2023-05-28T03:51:18;20.87;;;12.83;;
31210;SDS011;17836;50.948;3.946;2023-05-28T03:53:44;28.97;;;13.37;;
31210;SDS011;17836;50.948;3.946;2023-05-28T03:56:09;22.27;;;13.83;;
31210;SDS011;17836;50.948;3.946;2023-05-28T03:58:34;19.45;;;13.40;;
31210;SDS011;17836;50.948;3.946;2023-05-28T04:01:00;24.27;;;12.32;;
31210;SDS011;17836;50.948;3.946;2023-05-28T04:03:25;19.27;;;11.25;;
31210;SDS011;17836;50.948;3.946;2023-05-28T04:05:50;25.42;;;12.88;;
31210;SDS011;17836;50.948;3.946;2023-05-28T04:08:17;20.98;;;13.38;;
31210;SDS011;17836;50.948;3.946;2023-05-28T04:10:42;23.85;;;14.13;;
31210;SDS011;17836;50.948;3.946;2023-05-28T04:13:10;23.05;;;13.82;;
31210;SDS011;17836;50.948;3.946;2023-05-28T04:15:35;23.00;;;13.35;;
31210;SDS011;17836;50.948;3.946;2023-05-28T04:18:03;23.00;;;12.63;;
31210;SDS011;17836;50.948;3.946;2023-05-28T04:20:28;19.75;;;13.00;;
31210;SDS011;17836;50.948;3.946;2023-05-28T04:22:54;21.85;;;12.88;;
31210;SDS011;17836;50.948;3.946;2023-05-28T04:25:20;21.55;;;13.50;;
31210;SDS011;17836;50.948;3.946;2023-05-28T04:27:45;26.65;;;12.95;;
31210;SDS011;17836;50.948;3.946;2023-05-28T04:30:11;23.38;;;13.57;;
31210;SDS011;17836;50.948;3.946;2023-05-28T04:32:36;20.13;;;13.40;;
31210;SDS011;17836;50.948;3.946;2023-05-28T04:35:04;19.95;;;12.63;;
31210;SDS011;17836;50.948;3.946;2023-05-28T04:37:30;23.65;;;13.48;;
31210;SDS011;17836;50.948;3.946;2023-05-28T04:39:58;21.85;;;13.98;;
31210;SDS011;17836;50.948;3.946;2023-05-28T04:42:26;25.55;;;13.10;;
31210;SDS011;17836;50.948;3.946;2023-05-28T04:44:53;26.67;;;14.40;;
31210;SDS011;17836;50.948;3.946;2023-05-28T04:47:19;22.00;;;13.52;;
31210;SDS011;17836;50.948;3.946;2023-05-28T04:49:44;26.95;;;14.40;;
31210;SDS011;17836;50.948;3.946;2023-05-28T04:52:09;28.60;;;15.65;;
31210;SDS011;17836;50.948;3.946;2023-05-28T04:54:37;31.05;;;16.00;;
31210;SDS011;17836;50.948;3.946;2023-05-28T04:57:02;28.77;;;16.27;;
31210;SDS011;17836;50.948;3.946;2023-05-28T04:59:30;36.25;;;15.82;;
31210;SDS011;17836;50.948;3.946;2023-05-28T05:01:55;28.63;;;15.77;;
31210;SDS011;17836;50.948;3.946;2023-05-28T05:04:20;28.75;;;15.82;;
31210;SDS011;17836;50.948;3.946;2023-05-28T05:06:45;36.47;;;16.10;;
31210;SDS011;17836;50.948;3.946;2023-05-28T05:09:11;33.73;;;15.50;;
31210;SDS011;17836;50.948;3.946;2023-05-28T05:11:36;34.63;;;15.47;;
31210;SDS011;17836;50.948;3.946;2023-05-28T05:14:02;33.50;;;15.90;;
31210;SDS011;17836;50.948;3.946;2023-05-28T05:16:27;25.38;;;14.98;;
31210;SDS011;17836;50.948;3.946;2023-05-28T05:18:53;29.08;;;15.38;;
31210;SDS011;17836;50.948;3.946;2023-05-28T05:21:20;26.53;;;14.07;;
31210;SDS011;17836;50.948;3.946;2023-05-28T05:23:46;33.42;;;15.00;;
31210;SDS011;17836;50.948;3.946;2023-05-28T05:26:11;25.90;;;14.47;;
31210;SDS011;17836;50.948;3.946;2023-05-28T05:28:41;32.35;;;15.63;;
31210;SDS011;17836;50.948;3.946;2023-05-28T05:31:07;24.00;;;13.70;;
31210;SDS011;17836;50.948;3.946;2023-05-28T05:33:32;25.43;;;13.97;;
31210;SDS011;17836;50.948;3.946;2023-05-28T05:35:58;24.65;;;12.30;;
31210;SDS011;17836;50.948;3.946;2023-05-28T05:38:23;23.37;;;12.53;;
31210;SDS011;17836;50.948;3.946;2023-05-28T05:40:48;21.63;;;11.70;;
31210;SDS011;17836;50.948;3.946;2023-05-28T05:43:14;16.85;;;11.00;;
31210;SDS011;17836;50.948;3.946;2023-05-28T05:45:39;23.10;;;11.68;;
31210;SDS011;17836;50.948;3.946;2023-05-28T05:48:05;16.88;;;11.18;;
31210;SDS011;17836;50.948;3.946;2023-05-28T05:50:30;17.92;;;11.10;;
31210;SDS011;17836;50.948;3.946;2023-05-28T05:52:55;17.92;;;10.15;;
31210;SDS011;17836;50.948;3.946;2023-05-28T05:55:21;21.53;;;11.27;;
31210;SDS011;17836;50.948;3.946;2023-05-28T05:57:46;21.60;;;10.50;;
31210;SDS011;17836;50.948;3.946;2023-05-28T06:00:12;15.23;;;9.68;;
31210;SDS011;17836;50.948;3.946;2023-05-28T06:02:38;20.30;;;10.65;;
31210;SDS011;17836;50.948;3.946;2023-05-28T06:05:04;15.27;;;10.35;;
31210;SDS011;17836;50.948;3.946;2023-05-28T06:07:30;19.63;;;10.27;;
31210;SDS011;17836;50.948;3.946;2023-05-28T06:09:55;21.02;;;9.90;;
31210;SDS011;17836;50.948;3.946;2023-05-28T06:12:21;17.27;;;9.38;;
31210;SDS011;17836;50.948;3.946;2023-05-28T06:14:46;21.33;;;10.33;;
31210;SDS011;17836;50.948;3.946;2023-05-28T06:17:12;19.58;;;10.35;;
31210;SDS011;17836;50.948;3.946;2023-05-28T06:19:37;15.45;;;8.48;;
31210;SDS011;17836;50.948;3.946;2023-05-28T06:22:06;14.40;;;8.60;;
31210;SDS011;17836;50.948;3.946;2023-05-28T06:24:36;16.80;;;8.88;;
31210;SDS011;17836;50.948;3.946;2023-05-28T06:27:03;14.07;;;8.70;;
31210;SDS011;17836;50.948;3.946;2023-05-28T06:29:28;13.52;;;8.65;;
31210;SDS011;17836;50.948;3.946;2023-05-28T06:31:54;14.82;;;8.82;;
31210;SDS011;17836;50.948;3.946;2023-05-28T06:34:19;11.80;;;8.23;;
31210;SDS011;17836;50.948;3.946;2023-05-28T06:36:47;12.53;;;8.57;;
31210;SDS011;17836;50.948;3.946;2023-05-28T06:39:15;18.30;;;8.97;;
31210;SDS011;17836;50.948;3.946;2023-05-28T06:41:40;17.42;;;8.45;;
31210;SDS011;17836;50.948;3.946;2023-05-28T06:44:05;15.40;;;8.57;;
31210;SDS011;17836;50.948;3.946;2023-05-28T06:46:34;16.30;;;8.90;;
31210;SDS011;17836;50.948;3.946;2023-05-28T06:49:01;14.50;;;9.63;;
31210;SDS011;17836;50.948;3.946;2023-05-28T06:51:27;17.57;;;9.20;;
31210;SDS011;17836;50.948;3.946;2023-05-28T06:53:52;16.03;;;8.93;;
31210;SDS011;17836;50.948;3.946;2023-05-28T06:56:19;19.00;;;9.30;;
31210;SDS011;17836;50.948;3.946;2023-05-28T06:58:45;15.52;;;8.68;;
31210;SDS011;17836;50.948;3.946;2023-05-28T07:01:10;14.50;;;8.60;;
31210;SDS011;17836;50.948;3.946;2023-05-28T07:03:35;14.70;;;8.20;;
31210;SDS011;17836;50.948;3.946;2023-05-28T07:06:01;13.33;;;7.73;;
31210;SDS011;17836;50.948;3.946;2023-05-28T07:08:26;19.03;;;9.37;;
31210;SDS011;17836;50.948;3.946;2023-05-28T07:10:51;13.07;;;8.65;;
31210;SDS011;17836;50.948;3.946;2023-05-28T07:13:17;12.50;;;8.50;;
31210;SDS011;17836;50.948;3.946;2023-05-28T07:15:42;13.07;;;7.50;;
31210;SDS011;17836;50.948;3.946;2023-05-28T07:18:10;14.60;;;7.80;;
31210;SDS011;17836;50.948;3.946;2023-05-28T07:23:03;17.95;;;8.77;;
31210;SDS011;17836;50.948;3.946;2023-05-28T07:25:29;14.38;;;8.75;;
31210;SDS011;17836;50.948;3.946;2023-05-28T07:27:54;16.73;;;8.90;;
31210;SDS011;17836;50.948;3.946;2023-05-28T07:30:20;13.43;;;8.55;;
31210;SDS011;17836;50.948;3.946;2023-05-28T07:32:45;18.33;;;8.37;;
31210;SDS011;17836;50.948;3.946;2023-05-28T07:35:13;14.65;;;8.07;;
31210;SDS011;17836;50.948;3.946;2023-05-28T07:37:38;15.13;;;8.73;;
31210;SDS011;17836;50.948;3.946;2023-05-28T07:40:03;17.33;;;9.00;;
31210;SDS011;17836;50.948;3.946;2023-05-28T07:42:30;14.13;;;8.52;;
31210;SDS011;17836;50.948;3.946;2023-05-28T07:44:55;9.68;;;7.72;;
31210;SDS011;17836;50.948;3.946;2023-05-28T07:47:20;12.73;;;7.85;;
31210;SDS011;17836;50.948;3.946;2023-05-28T07:49:46;15.13;;;8.03;;
31210;SDS011;17836;50.948;3.946;2023-05-28T07:52:11;14.57;;;7.83;;
31210;SDS011;17836;50.948;3.946;2023-05-28T07:54:36;14.57;;;7.60;;
31210;SDS011;17836;50.948;3.946;2023-05-28T07:57:04;13.38;;;7.00;;
31210;SDS011;17836;50.948;3.946;2023-05-28T07:59:29;12.53;;;7.10;;
31210;SDS011;17836;50.948;3.946;2023-05-28T08:01:55;14.55;;;8.38;;
31210;SDS011;17836;50.948;3.946;2023-05-28T08:04:20;13.13;;;7.07;;
31210;SDS011;17836;50.948;3.946;2023-05-28T08:06:47;9.27;;;7.05;;
31210;SDS011;17836;50.948;3.946;2023-05-28T08:09:15;14.20;;;7.13;;
31210;SDS011;17836;50.948;3.946;2023-05-28T08:11:42;13.85;;;6.45;;
31210;SDS011;17836;50.948;3.946;2023-05-28T08:14:08;12.27;;;6.40;;
31210;SDS011;17836;50.948;3.946;2023-05-28T08:16:33;16.30;;;7.38;;
31210;SDS011;17836;50.948;3.946;2023-05-28T08:19:00;10.48;;;6.18;;
31210;SDS011;17836;50.948;3.946;2023-05-28T08:21:26;11.38;;;6.25;;
31210;SDS011;17836;50.948;3.946;2023-05-28T08:23:53;11.45;;;5.60;;
31210;SDS011;17836;50.948;3.946;2023-05-28T08:26:21;11.07;;;5.75;;
31210;SDS011;17836;50.948;3.946;2023-05-28T08:28:47;14.00;;;5.78;;
31210;SDS011;17836;50.948;3.946;2023-05-28T08:31:12;10.90;;;5.47;;
31210;SDS011;17836;50.948;3.946;2023-05-28T08:33:37;10.30;;;5.03;;
31210;SDS011;17836;50.948;3.946;2023-05-28T08:36:05;7.40;;;4.93;;
31210;SDS011;17836;50.948;3.946;2023-05-28T08:38:31;7.50;;;4.55;;
31210;SDS011;17836;50.948;3.946;2023-05-28T08:40:56;10.30;;;3.75;;
31210;SDS011;17836;50.948;3.946;2023-05-28T08:43:22;11.45;;;4.40;;
31210;SDS011;17836;50.948;3.946;2023-05-28T08:45:51;14.32;;;4.75;;
31210;SDS011;17836;50.948;3.946;2023-05-28T08:48:20;9.55;;;4.82;;
31210;SDS011;17836;50.948;3.946;2023-05-28T08:50:46;11.75;;;5.30;;
31210;SDS011;17836;50.948;3.946;2023-05-28T08:53:13;8.90;;;4.32;;
31210;SDS011;17836;50.948;3.946;2023-05-28T08:55:40;5.85;;;3.70;;
31210;SDS011;17836;50.948;3.946;2023-05-28T08:58:06;8.95;;;3.65;;
31210;SDS011;17836;50.948;3.946;2023-05-28T09:00:31;8.07;;;3.20;;
31210;SDS011;17836;50.948;3.946;2023-05-28T09:02:57;6.95;;;3.30;;
31210;SDS011;17836;50.948;3.946;2023-05-28T09:05:22;8.07;;;3.88;;
31210;SDS011;17836;50.948;3.946;2023-05-28T09:07:48;6.73;;;3.40;;
31210;SDS011;17836;50.948;3.946;2023-05-28T09:10:13;6.10;;;2.93;;
31210;SDS011;17836;50.948;3.946;2023-05-28T09:12:38;9.03;;;3.97;;
31210;SDS011;17836;50.948;3.946;2023-05-28T09:15:06;7.15;;;3.30;;
31210;SDS011;17836;50.948;3.946;2023-05-28T09:17:36;7.55;;;3.20;;
31210;SDS011;17836;50.948;3.946;2023-05-28T09:20:08;8.73;;;4.03;;
31210;SDS011;17836;50.948;3.946;2023-05-28T09:22:36;9.57;;;4.18;;
31210;SDS011;17836;50.948;3.946;2023-05-28T09:25:01;5.85;;;4.15;;
31210;SDS011;17836;50.948;3.946;2023-05-28T09:27:31;10.30;;;4.28;;
31210;SDS011;17836;50.948;3.946;2023-05-28T09:30:01;10.88;;;4.63;;
31210;SDS011;17836;50.948;3.946;2023-05-28T09:32:27;8.65;;;3.78;;
31210;SDS011;17836;50.948;3.946;2023-05-28T09:34:52;7.43;;;3.73;;
31210;SDS011;17836;50.948;3.946;2023-05-28T09:37:17;5.03;;;3.00;;
31210;SDS011;17836;50.948;3.946;2023-05-28T09:39:43;7.22;;;3.65;;
31210;SDS011;17836;50.948;3.946;2023-05-28T09:42:08;6.70;;;3.40;;
31210;SDS011;17836;50.948;3.946;2023-05-28T09:44:38;8.80;;;3.55;;
31210;SDS011;17836;50.948;3.946;2023-05-28T09:47:25;7.07;;;3.40;;
31210;SDS011;17836;50.948;3.946;2023-05-28T09:49:50;11.75;;;3.60;;
31210;SDS011;17836;50.948;3.946;2023-05-28T09:52:16;7.20;;;4.00;;
31210;SDS011;17836;50.948;3.946;2023-05-28T09:54:42;7.43;;;3.85;;
31210;SDS011;17836;50.948;3.946;2023-05-28T09:57:11;5.60;;;3.88;;
31210;SDS011;17836;50.948;3.946;2023-05-28T09:59:38;7.10;;;3.97;;
31210;SDS011;17836;50.948;3.946;2023-05-28T10:02:08;8.75;;;4.07;;
31210;SDS011;17836;50.948;3.946;2023-05-28T10:04:43;7.63;;;4.00;;
31210;SDS011;17836;50.948;3.946;2023-05-28T10:07:13;8.60;;;4.13;;
31210;SDS011;17836;50.948;3.946;2023-05-28T10:09:41;5.03;;;3.65;;
31210;SDS011;17836;50.948;3.946;2023-05-28T10:12:11;8.45;;;3.67;;
31210;SDS011;17836;50.948;3.946;2023-05-28T10:14:38;6.43;;;3.67;;
31210;SDS011;17836;50.948;3.946;2023-05-28T10:17:04;8.13;;;3.97;;
31210;SDS011;17836;50.948;3.946;2023-05-28T10:19:30;8.30;;;4.00;;
31210;SDS011;17836;50.948;3.946;2023-05-28T10:21:55;9.25;;;4.45;;
31210;SDS011;17836;50.948;3.946;2023-05-28T10:24:24;7.32;;;4.15;;
31210;SDS011;17836;50.948;3.946;2023-05-28T10:26:50;10.95;;;3.90;;
31210;SDS011;17836;50.948;3.946;2023-05-28T10:29:16;10.00;;;4.20;;
31210;SDS011;17836;50.948;3.946;2023-05-28T10:31:44;8.97;;;3.33;;
31210;SDS011;17836;50.948;3.946;2023-05-28T10:34:16;8.77;;;3.67;;
31210;SDS011;17836;50.948;3.946;2023-05-28T10:36:54;4.72;;;3.45;;
31210;SDS011;17836;50.948;3.946;2023-05-28T10:39:19;8.73;;;3.53;;
31210;SDS011;17836;50.948;3.946;2023-05-28T10:41:47;5.03;;;2.88;;
31210;SDS011;17836;50.948;3.946;2023-05-28T10:44:13;7.63;;;3.00;;
31210;SDS011;17836;50.948;3.946;2023-05-28T10:46:39;6.03;;;3.30;;
31210;SDS011;17836;50.948;3.946;2023-05-28T10:54:40;6.13;;;3.28;;
31210;SDS011;17836;50.948;3.946;2023-05-28T10:57:16;7.55;;;3.70;;
31210;SDS011;17836;50.948;3.946;2023-05-28T11:02:07;8.23;;;4.37;;
31210;SDS011;17836;50.948;3.946;2023-05-28T11:04:35;8.75;;;3.78;;
31210;SDS011;17836;50.948;3.946;2023-05-28T11:07:01;6.00;;;3.38;;
31210;SDS011;17836;50.948;3.946;2023-05-28T11:09:26;8.13;;;3.85;;
31210;SDS011;17836;50.948;3.946;2023-05-28T11:11:52;7.87;;;3.90;;
31210;SDS011;17836;50.948;3.946;2023-05-28T11:14:18;10.77;;;5.55;;
31210;SDS011;17836;50.948;3.946;2023-05-28T11:16:43;8.73;;;4.40;;
31210;SDS011;17836;50.948;3.946;2023-05-28T11:19:11;9.73;;;5.75;;
31210;SDS011;17836;50.948;3.946;2023-05-28T11:21:52;8.38;;;4.10;;
31210;SDS011;17836;50.948;3.946;2023-05-28T11:24:18;19.63;;;11.80;;
31210;SDS011;17836;50.948;3.946;2023-05-28T11:32:31;12.98;;;8.70;;
31210;SDS011;17836;50.948;3.946;2023-05-28T11:35:15;15.27;;;9.65;;
31210;SDS011;17836;50.948;3.946;2023-05-28T11:37:58;11.25;;;5.28;;
31210;SDS011;17836;50.948;3.946;2023-05-28T11:43:12;9.80;;;5.47;;
31210;SDS011;17836;50.948;3.946;2023-05-28T11:45:38;8.10;;;4.33;;
31210;SDS011;17836;50.948;3.946;2023-05-28T11:48:04;5.72;;;3.35;;
31210;SDS011;17836;50.948;3.946;2023-05-28T11:53:53;8.60;;;3.45;;
31210;SDS011;17836;50.948;3.946;2023-05-28T11:56:34;5.30;;;3.13;;
31210;SDS011;17836;50.948;3.946;2023-05-28T11:59:02;5.32;;;3.08;;
31210;SDS011;17836;50.948;3.946;2023-05-28T12:01:45;8.00;;;3.23;;
31210;SDS011;17836;50.948;3.946;2023-05-28T12:18:00;8.05;;;3.38;;
31210;SDS011;17836;50.948;3.946;2023-05-28T12:27:05;5.90;;;3.30;;
31210;SDS011;17836;50.948;3.946;2023-05-28T12:29:33;8.43;;;3.13;;
31210;SDS011;17836;50.948;3.946;2023-05-28T12:35:20;5.78;;;2.95;;
31210;SDS011;17836;50.948;3.946;2023-05-28T12:38:04;5.87;;;3.13;;
31210;SDS011;17836;50.948;3.946;2023-05-28T12:40:29;5.78;;;2.90;;
31210;SDS011;17836;50.948;3.946;2023-05-28T12:42:55;6.93;;;2.83;;
31210;SDS011;17836;50.948;3.946;2023-05-28T12:45:20;9.03;;;3.07;;
31210;SDS011;17836;50.948;3.946;2023-05-28T12:48:04;6.35;;;3.22;;
31210;SDS011;17836;50.948;3.946;2023-05-28T12:50:29;5.85;;;3.03;;
31210;SDS011;17836;50.948;3.946;2023-05-28T12:53:13;8.23;;;3.27;;
31210;SDS011;17836;50.948;3.946;2023-05-28T12:58:42;8.13;;;3.50;;
31210;SDS011;17836;50.948;3.946;2023-05-28T13:03:51;6.55;;;3.10;;
31210;SDS011;17836;50.948;3.946;2023-05-28T13:06:17;5.45;;;3.50;;
31210;SDS011;17836;50.948;3.946;2023-05-28T13:08:42;6.10;;;2.97;;
31210;SDS011;17836;50.948;3.946;2023-05-28T13:22:51;7.63;;;3.65;;
31210;SDS011;17836;50.948;3.946;2023-05-28T13:25:16;7.90;;;3.93;;
31210;SDS011;17836;50.948;3.946;2023-05-28T13:27:42;4.77;;;3.60;;
31210;SDS011;17836;50.948;3.946;2023-05-28T13:30:07;8.50;;;4.15;;
31210;SDS011;17836;50.948;3.946;2023-05-28T13:35:35;6.15;;;4.20;;
31210;SDS011;17836;50.948;3.946;2023-05-28T13:38:03;6.57;;;3.10;;
31210;SDS011;17836;50.948;3.946;2023-05-28T13:43:47;6.00;;;2.95;;
31210;SDS011;17836;50.948;3.946;2023-05-28T13:46:36;7.30;;;2.97;;
31210;SDS011;17836;50.948;3.946;2023-05-28T13:49:02;6.40;;;3.38;;
31210;SDS011;17836;50.948;3.946;2023-05-28T13:51:46;7.40;;;3.38;;
31210;SDS011;17836;50.948;3.946;2023-05-28T13:54:12;5.88;;;3.20;;
31210;SDS011;17836;50.948;3.946;2023-05-28T13:56:55;6.20;;;2.97;;
31210;SDS011;17836;50.948;3.946;2023-05-28T13:59:36;5.20;;;3.47;;
31210;SDS011;17836;50.948;3.946;2023-05-28T14:02:01;5.38;;;3.55;;
31210;SDS011;17836;50.948;3.946;2023-05-28T14:04:27;7.25;;;3.63;;
31210;SDS011;17836;50.948;3.946;2023-05-28T14:06:52;7.93;;;3.80;;
31210;SDS011;17836;50.948;3.946;2023-05-28T14:09:20;7.30;;;3.13;;
31210;SDS011;17836;50.948;3.946;2023-05-28T14:11:45;6.97;;;3.10;;
31210;SDS011;17836;50.948;3.946;2023-05-28T14:14:13;5.53;;;3.13;;
31210;SDS011;17836;50.948;3.946;2023-05-28T14:16:39;6.78;;;3.53;;
31210;SDS011;17836;50.948;3.946;2023-05-28T14:19:06;6.50;;;3.10;;
31210;SDS011;17836;50.948;3.946;2023-05-28T14:21:32;4.13;;;3.20;;
31210;SDS011;17836;50.948;3.946;2023-05-28T14:23:57;5.63;;;3.20;;
31210;SDS011;17836;50.948;3.946;2023-05-28T14:26:22;7.43;;;3.57;;
31210;SDS011;17836;50.948;3.946;2023-05-28T14:28:47;6.13;;;2.57;;
31210;SDS011;17836;50.948;3.946;2023-05-28T14:31:15;5.43;;;3.20;;
31210;SDS011;17836;50.948;3.946;2023-05-28T14:33:40;4.60;;;3.05;;
31210;SDS011;17836;50.948;3.946;2023-05-28T14:36:08;8.43;;;3.25;;
31210;SDS011;17836;50.948;3.946;2023-05-28T14:38:36;5.97;;;2.70;;
31210;SDS011;17836;50.948;3.946;2023-05-28T14:41:01;6.83;;;3.47;;
31210;SDS011;17836;50.948;3.946;2023-05-28T14:43:27;6.23;;;3.07;;
31210;SDS011;17836;50.948;3.946;2023-05-28T14:45:53;5.60;;;2.92;;
31210;SDS011;17836;50.948;3.946;2023-05-28T14:48:18;9.97;;;3.27;;
31210;SDS011;17836;50.948;3.946;2023-05-28T14:50:43;4.47;;;3.23;;
31210;SDS011;17836;50.948;3.946;2023-05-28T14:53:08;10.03;;;3.20;;
31210;SDS011;17836;50.948;3.946;2023-05-28T14:55:34;7.13;;;3.50;;
31210;SDS011;17836;50.948;3.946;2023-05-28T14:58:00;5.95;;;3.20;;
31210;SDS011;17836;50.948;3.946;2023-05-28T15:00:25;6.13;;;3.00;;
31210;SDS011;17836;50.948;3.946;2023-05-28T15:02:50;3.80;;;2.60;;
31210;SDS011;17836;50.948;3.946;2023-05-28T15:05:16;10.37;;;3.30;;
31210;SDS011;17836;50.948;3.946;2023-05-28T15:07:41;8.93;;;3.47;;
31210;SDS011;17836;50.948;3.946;2023-05-28T15:10:11;6.07;;;3.08;;
31210;SDS011;17836;50.948;3.946;2023-05-28T15:12:37;6.40;;;3.25;;
31210;SDS011;17836;50.948;3.946;2023-05-28T15:15:02;6.23;;;3.80;;
31210;SDS011;17836;50.948;3.946;2023-05-28T15:17:28;5.18;;;3.10;;
31210;SDS011;17836;50.948;3.946;2023-05-28T15:19:56;5.65;;;2.90;;
31210;SDS011;17836;50.948;3.946;2023-05-28T15:22:24;7.15;;;3.30;;
31210;SDS011;17836;50.948;3.946;2023-05-28T15:24:49;7.87;;;3.53;;
31210;SDS011;17836;50.948;3.946;2023-05-28T15:27:14;7.13;;;2.58;;
31210;SDS011;17836;50.948;3.946;2023-05-28T15:29:40;5.30;;;3.63;;
31210;SDS011;17836;50.948;3.946;2023-05-28T15:32:09;6.32;;;3.60;;
31210;SDS011;17836;50.948;3.946;2023-05-28T15:34:35;7.20;;;3.35;;
31210;SDS011;17836;50.948;3.946;2023-05-28T15:37:01;6.35;;;3.80;;
31210;SDS011;17836;50.948;3.946;2023-05-28T15:39:26;8.88;;;3.83;;
31210;SDS011;17836;50.948;3.946;2023-05-28T15:41:52;5.75;;;3.70;;
31210;SDS011;17836;50.948;3.946;2023-05-28T15:44:19;7.47;;;3.38;;